Time;durP1;ratioP1;P1;durP2;ratioP2;P2;SDS_P1;SDS_P2;PMS_P1;PMS_P2;Temp;Humidity;BMP_temperature;BMP_pressure;BME280_temperature;BME280_humidity;BME280_pressure;Samples;Min_cycle;Max_cycle;Signal;HPM_P1;HPM_P2
2022/10/08 00:00:56;;;;;;;6.63;2.00;;;12.30;99.90;;;;;;4983870;28;20049;-62
2022/10/08 00:03:39;;;;;;;6.28;1.98;;;12.20;99.90;;;;;;4959676;28;20428;-62
2022/10/08 00:06:34;;;;;;;5.70;1.75;;;12.30;99.90;;;;;;4992043;28;20504;-62
2022/10/08 00:09:06;;;;;;;6.47;1.85;;;12.30;99.90;;;;;;4974007;28;20072;-63
2022/10/08 00:11:35;;;;;;;5.30;2.30;;;12.20;99.90;;;;;;5019695;28;20490;-62
2022/10/08 00:14:05;;;;;;;6.57;1.77;;;12.20;99.90;;;;;;5042046;28;20049;-62
2022/10/08 00:16:36;;;;;;;6.15;2.00;;;12.20;99.90;;;;;;5008140;28;20061;-62
2022/10/08 00:19:25;;;;;;;7.88;1.80;;;12.20;99.90;;;;;;5015108;28;20486;-62
2022/10/08 00:21:57;;;;;;;4.75;1.67;;;12.20;99.90;;;;;;5009768;28;20065;-61
2022/10/08 00:24:23;;;;;;;10.07;2.67;;;12.20;99.90;;;;;;5020815;28;20057;-62
2022/10/08 00:26:52;;;;;;;5.65;2.28;;;12.20;99.90;;;;;;5015428;28;20511;-62
2022/10/08 00:29:23;;;;;;;5.80;1.88;;;12.20;99.90;;;;;;5017370;28;20050;-61
2022/10/08 00:31:50;;;;;;;6.70;2.00;;;12.20;99.90;;;;;;5005387;28;20579;-62
2022/10/08 00:34:22;;;;;;;7.53;1.90;;;12.20;99.90;;;;;;5056519;28;20829;-62
2022/10/08 00:36:52;;;;;;;5.78;2.15;;;12.20;99.90;;;;;;5040248;28;20107;-62
2022/10/08 00:39:20;;;;;;;6.38;2.17;;;12.20;99.90;;;;;;5050698;28;20052;-61
2022/10/08 00:41:50;;;;;;;3.60;1.90;;;12.20;99.90;;;;;;5049736;28;20048;-62
2022/10/08 00:44:52;;;;;;;8.00;2.03;;;12.20;99.90;;;;;;5044195;28;20598;-62
2022/10/08 00:47:45;;;;;;;5.53;1.83;;;12.20;99.90;;;;;;5023749;28;20098;-62
2022/10/08 00:50:20;;;;;;;6.47;2.08;;;12.20;99.90;;;;;;5035427;28;20444;-62
2022/10/08 00:52:58;;;;;;;7.38;2.78;;;12.20;99.90;;;;;;5035932;28;20044;-63
2022/10/08 00:55:33;;;;;;;7.80;2.92;;;12.20;99.90;;;;;;5058827;28;20053;-63
2022/10/08 00:58:21;;;;;;;7.85;2.30;;;12.20;99.90;;;;;;5045927;28;20076;-62
2022/10/08 01:00:52;;;;;;;6.15;1.95;;;12.20;99.90;;;;;;5037596;28;20052;-63
2022/10/08 01:03:18;;;;;;;6.90;1.80;;;12.20;99.90;;;;;;5033848;28;20078;-63
2022/10/08 01:06:15;;;;;;;4.50;1.75;;;12.20;99.90;;;;;;5029585;28;20518;-63
2022/10/08 01:08:56;;;;;;;5.50;2.08;;;12.20;99.90;;;;;;5037090;28;20063;-63
2022/10/08 01:11:44;;;;;;;7.57;2.00;;;12.20;99.90;;;;;;5015775;28;20103;-62
2022/10/08 01:14:43;;;;;;;11.85;2.50;;;12.20;99.90;;;;;;5020098;28;20060;-63
2022/10/08 01:17:12;;;;;;;6.15;2.30;;;12.20;99.90;;;;;;5011884;28;20053;-64
2022/10/08 01:20:05;;;;;;;9.70;2.53;;;12.20;99.90;;;;;;5052419;28;20087;-61
2022/10/08 01:23:07;;;;;;;5.38;2.38;;;12.20;99.90;;;;;;5037270;28;20082;-62
2022/10/08 01:25:54;;;;;;;6.40;2.17;;;12.20;99.90;;;;;;5038893;28;20059;-64
2022/10/08 01:28:44;;;;;;;8.38;2.20;;;12.20;99.90;;;;;;5026846;28;20045;-63
2022/10/08 01:31:29;;;;;;;6.30;2.20;;;12.20;99.90;;;;;;5038626;28;20082;-63
2022/10/08 01:34:03;;;;;;;8.85;2.47;;;12.20;99.90;;;;;;5039477;28;20049;-62
2022/10/08 01:36:34;;;;;;;;;;;12.10;99.90;;;;;;5027370;28;20044;-62
2022/10/08 01:39:04;;;;;;;7.95;2.60;;;12.10;99.90;;;;;;5040288;28;19931;-62
2022/10/08 01:41:32;;;;;;;10.25;3.38;;;12.10;99.90;;;;;;5038542;28;20056;-62
2022/10/08 01:44:14;;;;;;;9.15;2.67;;;12.00;99.90;;;;;;5039978;28;20669;-62
2022/10/08 01:46:48;;;;;;;10.32;2.92;;;12.10;99.90;;;;;;5039672;28;20111;-62
2022/10/08 01:49:21;;;;;;;9.65;2.50;;;12.10;99.90;;;;;;5044492;28;20099;-63
2022/10/08 01:51:50;;;;;;;;;;;12.20;99.90;;;;;;5045374;28;20515;-63
2022/10/08 01:54:20;;;;;;;10.20;2.78;;;12.10;99.90;;;;;;5044027;28;20467;-63
2022/10/08 01:57:04;;;;;;;6.57;2.90;;;12.10;99.90;;;;;;5055652;28;20056;-62
2022/10/08 01:59:50;;;;;;;9.13;3.00;;;12.10;99.90;;;;;;5039059;28;20080;-62
2022/10/08 02:02:22;;;;;;;8.20;2.58;;;12.20;99.90;;;;;;5038458;28;20068;-63
2022/10/08 02:04:52;;;;;;;10.73;2.95;;;12.00;99.90;;;;;;5048494;28;20416;-63
2022/10/08 02:07:34;;;;;;;12.70;3.20;;;12.00;99.90;;;;;;5040732;28;20056;-60
2022/10/08 02:10:12;;;;;;;11.18;3.10;;;11.90;99.90;;;;;;5048429;28;20052;-62
2022/10/08 02:12:39;;;;;;;7.88;2.95;;;11.90;99.90;;;;;;5057568;28;20499;-61
2022/10/08 02:15:10;;;;;;;6.78;2.92;;;11.80;99.90;;;;;;5040277;28;20487;-62
2022/10/08 02:17:36;;;;;;;14.30;3.25;;;11.70;99.90;;;;;;5040989;28;20110;-62
2022/10/08 02:20:15;;;;;;;8.85;3.10;;;11.70;99.90;;;;;;5049524;28;20033;-62
2022/10/08 02:23:05;;;;;;;10.98;2.92;;;11.60;99.90;;;;;;5048788;28;20541;-62
2022/10/08 02:25:34;;;;;;;10.85;3.40;;;11.60;99.90;;;;;;5037952;28;20057;-63
2022/10/08 02:28:05;;;;;;;9.02;2.85;;;11.50;99.90;;;;;;5041588;28;20120;-62
2022/10/08 02:30:41;;;;;;;13.40;3.33;;;11.40;99.90;;;;;;5042105;28;20053;-60
2022/10/08 02:33:20;;;;;;;12.32;3.17;;;11.40;99.90;;;;;;5040447;28;20049;-58
2022/10/08 02:35:54;;;;;;;11.00;3.47;;;11.30;99.90;;;;;;5041923;28;20053;-63
2022/10/08 02:38:26;;;;;;;12.60;3.47;;;11.30;99.90;;;;;;5042821;28;20550;-60
2022/10/08 02:41:03;;;;;;;8.43;2.67;;;11.20;99.90;;;;;;5042788;28;20045;-63
2022/10/08 02:43:33;;;;;;;20.13;3.25;;;11.20;99.90;;;;;;5040555;28;20504;-63
2022/10/08 02:46:05;;;;;;;12.15;3.40;;;11.20;99.90;;;;;;5041404;28;20503;-63
2022/10/08 02:48:35;;;;;;;15.35;3.80;;;11.20;99.90;;;;;;5041412;28;20044;-61
2022/10/08 02:51:09;;;;;;;13.80;3.53;;;11.20;99.90;;;;;;5022566;28;20242;-64
2022/10/08 02:53:38;;;;;;;11.45;3.63;;;11.30;99.90;;;;;;5038917;28;20523;-63
2022/10/08 02:56:30;;;;;;;11.73;3.53;;;11.30;99.90;;;;;;5041532;28;20041;-62
2022/10/08 02:58:56;;;;;;;10.63;3.22;;;11.30;99.90;;;;;;5039041;28;20495;-62
2022/10/08 03:01:46;;;;;;;12.02;3.50;;;11.30;99.90;;;;;;5036103;28;20549;-61
2022/10/08 03:04:35;;;;;;;8.48;3.42;;;11.30;99.90;;;;;;5042290;28;20056;-62
2022/10/08 03:07:01;;;;;;;11.70;2.90;;;11.30;99.90;;;;;;5047119;28;20053;-62
2022/10/08 03:09:44;;;;;;;10.50;3.70;;;11.30;99.90;;;;;;5038250;28;20044;-62
2022/10/08 03:12:10;;;;;;;;;;;11.30;99.90;;;;;;5041443;28;20430;-62
2022/10/08 03:14:46;;;;;;;11.35;3.20;;;11.20;99.90;;;;;;5055091;28;19945;-61
2022/10/08 03:17:17;;;;;;;12.85;2.83;;;11.20;99.90;;;;;;5038730;28;20048;-62
2022/10/08 03:19:42;;;;;;;11.93;3.50;;;11.20;99.90;;;;;;5044055;28;20048;-63
2022/10/08 03:22:09;;;;;;;12.95;3.17;;;11.20;99.90;;;;;;5039645;28;20115;-61
2022/10/08 03:24:35;;;;;;;10.00;3.25;;;11.20;99.90;;;;;;5035825;28;20354;-61
2022/10/08 03:27:01;;;;;;;9.10;3.15;;;11.20;99.90;;;;;;5038348;28;20470;-62
2022/10/08 03:29:26;;;;;;;11.35;2.90;;;11.20;99.90;;;;;;5035434;28;20060;-63
2022/10/08 03:31:52;;;;;;;12.18;3.20;;;11.20;99.90;;;;;;5043140;28;20449;-62
2022/10/08 03:34:18;;;;;;;12.50;3.67;;;11.20;99.90;;;;;;5041098;28;20056;-62
2022/10/08 03:36:44;;;;;;;10.85;3.30;;;11.20;99.90;;;;;;5037887;28;20052;-62
2022/10/08 03:39:10;;;;;;;10.68;3.90;;;11.20;99.90;;;;;;5042759;28;20063;-62
2022/10/08 03:41:36;;;;;;;11.73;3.03;;;11.20;99.90;;;;;;5030996;28;20057;-60
2022/10/08 03:44:02;;;;;;;14.50;4.18;;;11.30;99.90;;;;;;5073998;28;20437;-62
2022/10/08 03:46:28;;;;;;;11.18;3.20;;;11.20;99.90;;;;;;5035302;28;20052;-62
2022/10/08 03:48:54;;;;;;;12.43;3.35;;;11.30;99.90;;;;;;5040268;28;20159;-62
2022/10/08 03:51:20;;;;;;;14.52;3.25;;;11.30;99.90;;;;;;5038834;28;20036;-62
2022/10/08 03:53:46;;;;;;;15.07;2.90;;;11.20;99.90;;;;;;5075381;28;20070;-61
2022/10/08 03:56:17;;;;;;;16.30;4.28;;;11.20;99.90;;;;;;5061882;28;20055;-62
2022/10/08 03:58:44;;;;;;;11.80;3.30;;;11.20;99.90;;;;;;5032299;28;20052;-63
2022/10/08 04:01:15;;;;;;;11.88;3.65;;;11.10;99.90;;;;;;5027681;28;20072;-62
2022/10/08 04:03:42;;;;;;;11.90;2.80;;;11.10;99.90;;;;;;5063702;28;20056;-62
2022/10/08 04:06:08;;;;;;;16.05;3.33;;;11.10;99.90;;;;;;5048761;28;20052;-61
2022/10/08 04:08:34;;;;;;;14.95;4.07;;;11.00;99.90;;;;;;5069650;28;20051;-61
2022/10/08 04:11:18;;;;;;;16.52;3.30;;;11.00;99.90;;;;;;5037708;28;20494;-63
2022/10/08 04:13:44;;;;;;;11.68;2.60;;;11.00;99.90;;;;;;5069016;28;20055;-62
2022/10/08 04:16:13;;;;;;;21.25;3.08;;;10.90;99.90;;;;;;5045909;28;20135;-62
2022/10/08 04:18:40;;;;;;;13.95;2.85;;;10.90;99.90;;;;;;5047161;28;20059;-62
2022/10/08 04:21:08;;;;;;;13.25;3.00;;;10.90;99.90;;;;;;5055781;28;20049;-62
2022/10/08 04:23:36;;;;;;;13.23;2.95;;;10.90;99.90;;;;;;5036607;28;20143;-63
2022/10/08 04:26:03;;;;;;;14.60;3.35;;;10.80;99.90;;;;;;5035623;28;20103;-62
2022/10/08 04:28:29;;;;;;;10.27;3.00;;;10.70;99.90;;;;;;5029728;28;20098;-62
2022/10/08 04:30:59;;;;;;;16.20;4.72;;;10.70;99.90;;;;;;5056426;28;20040;-60
2022/10/08 04:33:25;;;;;;;17.25;3.70;;;10.70;99.90;;;;;;5019509;28;20462;-59
2022/10/08 04:35:51;;;;;;;11.00;2.83;;;10.70;99.90;;;;;;5036885;28;20049;-62
2022/10/08 04:38:17;;;;;;;15.43;3.22;;;10.60;99.90;;;;;;5038231;28;20511;-62
2022/10/08 04:40:43;;;;;;;16.27;3.03;;;10.60;99.90;;;;;;5036133;28;20044;-62
2022/10/08 04:43:08;;;;;;;11.55;3.15;;;10.60;99.90;;;;;;5033899;28;20681;-61
2022/10/08 04:45:43;;;;;;;14.20;3.05;;;10.50;99.90;;;;;;5035103;28;20053;-62
2022/10/08 04:48:12;;;;;;;13.45;3.45;;;10.50;99.90;;;;;;5036538;28;20056;-61
2022/10/08 04:50:38;;;;;;;16.98;3.25;;;10.50;99.90;;;;;;5018678;28;20540;-61
2022/10/08 04:53:05;;;;;;;15.52;2.90;;;10.40;99.90;;;;;;5034830;28;20048;-60
2022/10/08 04:55:30;;;;;;;13.15;2.47;;;10.40;99.90;;;;;;5041842;28;20574;-61
2022/10/08 04:57:56;;;;;;;11.63;2.90;;;10.40;99.90;;;;;;5036104;28;20140;-62
2022/10/08 05:00:22;;;;;;;13.75;2.58;;;10.30;99.90;;;;;;5042141;28;20087;-62
2022/10/08 05:02:48;;;;;;;14.68;3.25;;;10.30;99.90;;;;;;5070253;28;20470;-62
2022/10/08 05:05:14;;;;;;;11.00;2.35;;;10.30;99.90;;;;;;5046581;28;20060;-62
2022/10/08 05:07:40;;;;;;;14.50;2.50;;;10.20;99.90;;;;;;5055280;28;20051;-62
2022/10/08 05:10:06;;;;;;;19.90;3.15;;;10.20;99.90;;;;;;5032078;28;20048;-60
2022/10/08 05:12:32;;;;;;;14.95;3.35;;;10.20;99.90;;;;;;5048666;28;20549;-62
2022/10/08 05:14:58;;;;;;;11.05;2.80;;;10.10;99.90;;;;;;5055789;28;20132;-62
2022/10/08 05:17:24;;;;;;;17.42;3.10;;;10.20;99.90;;;;;;5043146;28;20059;-59
2022/10/08 05:19:49;;;;;;;16.90;2.75;;;10.20;99.90;;;;;;5067595;28;20048;-61
2022/10/08 05:22:15;;;;;;;15.07;2.70;;;10.20;99.90;;;;;;5068779;28;20132;-62
2022/10/08 05:24:44;;;;;;;12.07;2.70;;;10.10;99.90;;;;;;5042789;28;20045;-62
2022/10/08 05:27:15;;;;;;;10.35;2.80;;;10.20;99.90;;;;;;5044092;28;20099;-61
2022/10/08 05:29:41;;;;;;;15.43;3.08;;;10.20;99.90;;;;;;5042890;28;20138;-62
2022/10/08 05:32:07;;;;;;;15.13;2.70;;;10.20;99.90;;;;;;5042125;28;20048;-61
2022/10/08 05:34:32;;;;;;;16.45;4.10;;;10.10;99.90;;;;;;5057971;28;20048;-62
2022/10/08 05:36:58;;;;;;;14.85;2.72;;;10.10;99.90;;;;;;5021756;28;20059;-62
2022/10/08 05:39:24;;;;;;;21.63;2.70;;;10.10;99.90;;;;;;5052695;28;20068;-62
2022/10/08 05:41:50;;;;;;;14.85;3.03;;;10.10;99.90;;;;;;5043155;28;20052;-62
2022/10/08 05:44:16;;;;;;;15.02;3.20;;;10.10;99.90;;;;;;5040876;28;20119;-61
2022/10/08 05:46:42;;;;;;;16.73;2.63;;;10.10;99.90;;;;;;5041321;28;20052;-63
2022/10/08 05:49:17;;;;;;;13.90;2.83;;;10.10;99.90;;;;;;5026680;28;20132;-61
2022/10/08 05:51:47;;;;;;;12.43;3.17;;;10.10;99.90;;;;;;5060957;28;20048;-62
2022/10/08 05:54:14;;;;;;;21.20;2.60;;;10.10;99.90;;;;;;5036377;28;20136;-61
2022/10/08 05:56:40;;;;;;;18.92;3.22;;;10.00;99.90;;;;;;5041926;28;20558;-62
2022/10/08 05:59:11;;;;;;;11.75;2.67;;;10.00;99.90;;;;;;5060155;28;20047;-60
2022/10/08 06:01:37;;;;;;;13.98;3.00;;;10.00;99.90;;;;;;5041230;28;20060;-61
2022/10/08 06:04:05;;;;;;;11.63;2.80;;;10.00;99.90;;;;;;5062795;28;20430;-62
2022/10/08 06:06:30;;;;;;;21.85;3.17;;;10.00;99.90;;;;;;5043941;28;20059;-61
2022/10/08 06:08:59;;;;;;;19.48;3.17;;;10.00;99.90;;;;;;5053941;28;20048;-62
2022/10/08 06:11:30;;;;;;;18.50;2.88;;;10.00;99.90;;;;;;5066010;28;20058;-63
2022/10/08 06:14:00;;;;;;;16.10;3.13;;;10.00;99.90;;;;;;5046207;28;20592;-61
2022/10/08 06:16:28;;;;;;;19.00;2.90;;;10.10;99.90;;;;;;5062430;28;20118;-62
2022/10/08 06:18:54;;;;;;;13.20;2.88;;;10.10;99.90;;;;;;5060648;28;20076;-62
2022/10/08 06:21:22;;;;;;;14.35;3.15;;;10.10;99.90;;;;;;5053824;28;20131;-62
2022/10/08 06:24:02;;;;;;;16.65;4.68;;;10.10;99.90;;;;;;5069998;28;20055;-62
2022/10/08 06:26:32;;;;;;;12.88;2.75;;;10.20;99.90;;;;;;5059544;28;20044;-62
2022/10/08 06:28:58;;;;;;;15.65;3.33;;;10.30;99.90;;;;;;5052040;28;20059;-62
2022/10/08 06:31:25;;;;;;;15.35;3.90;;;10.40;99.90;;;;;;5051420;28;20048;-62
2022/10/08 06:33:57;;;;;;;20.50;3.70;;;10.50;99.90;;;;;;5063879;28;20052;-64
2022/10/08 06:36:25;;;;;;;15.60;4.40;;;10.70;99.90;;;;;;5054661;28;20090;-63
2022/10/08 06:38:53;;;;;;;17.80;3.05;;;10.80;99.90;;;;;;5071191;28;20569;-63
2022/10/08 06:41:19;;;;;;;10.35;3.47;;;10.90;99.90;;;;;;5041948;28;20052;-63
2022/10/08 06:43:45;;;;;;;13.35;3.90;;;11.00;99.90;;;;;;5073584;28;20043;-63
2022/10/08 06:46:11;;;;;;;12.15;2.80;;;11.00;99.90;;;;;;5074069;28;20048;-64
2022/10/08 06:48:37;;;;;;;15.20;3.22;;;11.00;99.90;;;;;;5062225;28;20556;-64
2022/10/08 06:51:07;;;;;;;10.70;3.00;;;10.90;99.90;;;;;;5057418;28;20029;-63
2022/10/08 06:53:36;;;;;;;14.00;2.95;;;10.90;99.90;;;;;;5025107;28;20503;-63
2022/10/08 06:56:05;;;;;;;13.70;3.17;;;10.90;99.90;;;;;;5040653;28;20498;-62
2022/10/08 06:58:31;;;;;;;15.10;3.00;;;10.80;99.90;;;;;;5061299;28;20055;-64
2022/10/08 07:01:25;;;;;;;19.63;2.92;;;11.00;99.90;;;;;;5055146;28;20048;-63
2022/10/08 07:03:51;;;;;;;;;;;11.20;99.90;;;;;;5054443;28;20527;-63
2022/10/08 07:06:18;;;;;;;12.48;3.83;;;11.10;99.90;;;;;;5051583;28;20438;-61
2022/10/08 07:08:44;;;;;;;14.57;4.03;;;11.10;99.90;;;;;;5058911;28;20474;-60
2022/10/08 07:11:13;;;;;;;17.25;4.00;;;11.20;99.90;;;;;;5068989;28;20036;-61
2022/10/08 07:13:39;;;;;;;17.65;3.20;;;11.40;99.90;;;;;;5070907;28;20059;-60
2022/10/08 07:16:20;;;;;;;16.30;3.55;;;11.50;99.90;;;;;;5063298;28;20387;-61
2022/10/08 07:18:48;;;;;;;16.83;3.10;;;11.80;99.90;;;;;;5053498;28;20127;-61
2022/10/08 07:21:15;;;;;;;12.38;3.33;;;12.00;99.90;;;;;;5058279;28;20117;-64
2022/10/08 07:23:41;;;;;;;15.68;4.18;;;12.20;99.90;;;;;;5060036;28;20595;-63
2022/10/08 07:26:23;;;;;;;11.63;2.50;;;12.50;99.90;;;;;;5058397;28;20169;-64
2022/10/08 07:28:54;;;;;;;13.75;2.88;;;12.60;99.90;;;;;;5051865;28;20052;-62
2022/10/08 07:31:23;;;;;;;11.38;2.75;;;12.70;99.90;;;;;;5057275;28;20040;-61
2022/10/08 07:33:49;;;;;;;12.80;3.05;;;12.80;99.90;;;;;;5060939;28;20505;-62
2022/10/08 07:36:17;;;;;;;11.80;3.08;;;13.00;99.90;;;;;;5055167;28;20056;-62
2022/10/08 07:38:43;;;;;;;11.45;2.90;;;13.10;99.90;;;;;;5044096;28;20080;-63
2022/10/08 07:41:10;;;;;;;10.35;2.47;;;13.30;99.90;;;;;;5039948;28;20131;-62
2022/10/08 07:43:40;;;;;;;8.63;2.30;;;13.50;99.90;;;;;;5043748;28;20056;-61
2022/10/08 07:46:07;;;;;;;12.07;3.25;;;13.60;99.90;;;;;;5058711;28;20047;-61
2022/10/08 07:48:34;;;;;;;8.15;1.80;;;13.60;99.90;;;;;;5062095;28;20044;-63
2022/10/08 07:51:14;;;;;;;10.65;2.00;;;13.70;99.90;;;;;;5057347;28;20048;-65
2022/10/08 07:53:43;;;;;;;10.85;2.33;;;13.90;99.90;;;;;;5061830;28;20131;-63
2022/10/08 07:56:16;;;;;;;7.93;2.45;;;13.90;99.90;;;;;;5065368;28;20134;-62
2022/10/08 07:58:42;;;;;;;10.45;2.05;;;14.00;99.90;;;;;;5023329;28;20056;-63
2022/10/08 08:01:14;;;;;;;7.80;1.88;;;13.90;99.90;;;;;;5066521;28;20097;-61
2022/10/08 08:03:41;;;;;;;8.73;2.20;;;13.90;99.90;;;;;;5040688;28;20537;-62
2022/10/08 08:06:15;;;;;;;7.40;1.70;;;14.00;99.90;;;;;;5060355;28;20076;-62
2022/10/08 08:08:43;;;;;;;9.13;1.70;;;14.10;99.90;;;;;;5048190;28;20053;-62
2022/10/08 08:11:13;;;;;;;9.25;2.78;;;14.10;99.90;;;;;;5072673;28;20044;-63
2022/10/08 08:13:39;;;;;;;7.15;1.92;;;14.20;99.90;;;;;;5059418;28;20513;-62
2022/10/08 08:16:09;;;;;;;8.85;2.25;;;14.20;99.90;;;;;;5061590;28;20044;-62
2022/10/08 08:18:37;;;;;;;8.95;2.42;;;14.30;99.90;;;;;;5061545;28;20135;-62
2022/10/08 08:21:06;;;;;;;7.72;1.90;;;14.30;99.90;;;;;;5044279;28;20518;-63
2022/10/08 08:23:35;;;;;;;8.65;1.80;;;14.30;99.90;;;;;;5045978;28;20453;-62
2022/10/08 08:26:03;;;;;;;7.82;2.25;;;14.30;99.90;;;;;;5044543;28;20125;-62
2022/10/08 08:28:29;;;;;;;6.78;1.52;;;14.20;99.90;;;;;;5069321;28;20040;-63
2022/10/08 08:31:05;;;;;;;9.45;1.98;;;14.20;99.90;;;;;;5034688;28;20046;-62
2022/10/08 08:33:31;;;;;;;7.65;2.13;;;14.10;99.90;;;;;;5055832;28;20047;-63
2022/10/08 08:35:56;;;;;;;8.88;1.90;;;14.10;99.90;;;;;;5040209;28;20044;-62
2022/10/08 08:38:22;;;;;;;10.05;1.80;;;14.10;99.90;;;;;;5046865;28;20150;-63
2022/10/08 08:40:48;;;;;;;7.85;1.63;;;14.00;99.90;;;;;;5046016;28;20139;-62
2022/10/08 08:43:14;;;;;;;8.25;2.05;;;14.10;99.90;;;;;;5066477;28;20087;-62
2022/10/08 08:45:42;;;;;;;7.10;1.73;;;14.10;99.90;;;;;;5066052;28;20049;-63
2022/10/08 08:48:25;;;;;;;5.75;2.00;;;14.20;99.90;;;;;;5065823;28;20483;-61
2022/10/08 08:50:55;;;;;;;10.77;1.67;;;14.30;99.90;;;;;;5066023;28;20060;-62
2022/10/08 08:53:22;;;;;;;10.52;2.05;;;14.40;99.90;;;;;;5066156;28;20380;-62
2022/10/08 08:55:57;;;;;;;7.72;1.90;;;14.60;99.90;;;;;;5065167;28;20056;-63
2022/10/08 08:58:26;;;;;;;7.75;1.77;;;14.80;99.90;;;;;;5066231;28;20137;-63
2022/10/08 09:01:09;;;;;;;9.55;2.10;;;14.90;99.90;;;;;;5025554;28;20057;-62
2022/10/08 09:03:40;;;;;;;10.23;2.28;;;15.10;99.90;;;;;;5043701;28;20067;-63
2022/10/08 09:06:13;;;;;;;10.60;2.00;;;15.30;99.90;;;;;;5054014;28;20044;-63
2022/10/08 09:09:04;;;;;;;10.93;1.77;;;15.50;99.90;;;;;;5057724;28;20060;-63
2022/10/08 09:11:31;;;;;;;6.20;1.73;;;15.70;99.90;;;;;;5057126;28;20534;-62
2022/10/08 09:14:10;;;;;;;10.45;2.45;;;15.60;99.90;;;;;;5046100;28;20055;-63
2022/10/08 09:16:38;;;;;;;5.53;1.60;;;15.70;99.90;;;;;;5045629;28;20120;-62
2022/10/08 09:19:04;;;;;;;7.15;1.58;;;15.70;99.90;;;;;;5057751;28;20051;-63
2022/10/08 09:21:32;;;;;;;7.75;1.80;;;15.70;99.90;;;;;;5065012;28;20048;-61
2022/10/08 09:23:59;;;;;;;10.50;2.25;;;15.70;99.90;;;;;;5060369;28;20136;-64
2022/10/08 09:26:30;;;;;;;8.63;2.08;;;15.70;99.90;;;;;;5044668;28;20044;-64
2022/10/08 09:29:00;;;;;;;13.02;1.92;;;15.50;99.90;;;;;;5058800;28;20045;-64
2022/10/08 09:31:40;;;;;;;7.63;1.70;;;15.30;99.90;;;;;;5031945;28;20049;-64
2022/10/08 09:34:14;;;;;;;9.93;2.53;;;15.30;99.90;;;;;;5043337;28;20083;-63
2022/10/08 09:36:48;;;;;;;9.60;2.22;;;15.30;99.90;;;;;;5044123;28;20064;-64
2022/10/08 09:39:21;;;;;;;13.20;2.10;;;15.40;99.90;;;;;;5044967;28;20420;-64
2022/10/08 09:42:13;;;;;;;7.30;2.03;;;15.40;99.90;;;;;;5044004;28;20049;-64
2022/10/08 09:44:50;;;;;;;10.95;2.17;;;15.40;99.90;;;;;;5029156;28;20462;-63
2022/10/08 09:47:22;;;;;;;11.13;2.60;;;15.20;99.90;;;;;;5041753;28;20056;-64
2022/10/08 09:50:14;;;;;;;7.28;1.55;;;15.20;99.90;;;;;;5044454;28;20076;-63
2022/10/08 09:52:41;;;;;;;6.90;1.67;;;15.30;99.90;;;;;;5043598;28;20052;-64
2022/10/08 09:55:09;;;;;;;12.57;2.58;;;15.30;99.90;;;;;;5043079;28;20075;-64
2022/10/08 09:57:48;;;;;;;9.75;1.75;;;15.30;99.90;;;;;;5044271;28;20128;-64
2022/10/08 10:00:38;;;;;;;12.30;2.35;;;15.20;99.90;;;;;;5044946;28;20063;-64
2022/10/08 10:03:16;;;;;;;8.68;1.65;;;15.10;99.90;;;;;;4989246;28;20054;-65
2022/10/08 10:05:42;;;;;;;19.70;3.30;;;15.00;99.90;;;;;;4980772;28;20078;-65
2022/10/08 10:08:47;;;;;;;7.55;1.77;;;14.80;99.90;;;;;;4967960;28;20136;-62
2022/10/08 10:11:31;;;;;;;13.82;2.08;;;14.60;99.90;;;;;;4984950;28;20477;-66
2022/10/08 10:14:29;;;;;;;5.53;1.60;;;14.50;99.90;;;;;;4981715;28;20064;-66
2022/10/08 10:17:29;;;;;;;9.27;2.20;;;14.50;99.90;;;;;;4932671;29;20093;-64
2022/10/08 10:20:03;;;;;;;10.85;2.17;;;14.60;99.90;;;;;;4921921;29;20056;-65
2022/10/08 10:22:58;;;;;;;12.45;2.17;;;14.70;99.90;;;;;;4924235;29;20144;-66
2022/10/08 10:25:35;;;;;;;8.63;2.25;;;14.80;99.90;;;;;;4908099;29;20059;-65
2022/10/08 10:28:34;;;;;;;7.90;1.35;;;15.00;99.90;;;;;;4924089;29;20067;-65
2022/10/08 10:31:05;;;;;;;6.80;1.98;;;15.10;99.90;;;;;;4867333;29;20611;-64
2022/10/08 10:33:45;;;;;;;9.13;1.83;;;15.20;99.90;;;;;;4877553;29;20764;-65
2022/10/08 10:36:15;;;;;;;9.63;1.88;;;15.20;99.90;;;;;;4879392;29;20406;-65
2022/10/08 10:38:51;;;;;;;7.05;1.48;;;15.30;99.90;;;;;;4865108;29;20093;-65
2022/10/08 10:41:36;;;;;;;9.90;1.70;;;15.30;99.90;;;;;;4921013;29;20070;-65
2022/10/08 10:44:09;;;;;;;7.93;1.52;;;15.30;99.90;;;;;;4919800;29;20099;-65
2022/10/08 10:46:41;;;;;;;10.77;1.88;;;15.40;99.90;;;;;;4926982;29;20051;-65
2022/10/08 10:49:15;;;;;;;8.45;2.00;;;15.40;99.90;;;;;;4923700;29;20070;-65
2022/10/08 10:52:07;;;;;;;9.43;2.67;;;15.50;99.90;;;;;;4917464;29;20066;-65
2022/10/08 10:54:56;;;;;;;8.45;2.08;;;15.60;99.90;;;;;;4980427;28;20080;-66
2022/10/08 10:57:28;;;;;;;9.23;1.80;;;15.60;99.90;;;;;;4985324;28;20528;-65
2022/10/08 11:00:08;;;;;;;9.02;1.80;;;15.60;99.90;;;;;;4996887;28;20054;-65
2022/10/08 11:02:37;;;;;;;5.00;1.63;;;15.60;99.90;;;;;;5006333;28;20144;-66
2022/10/08 11:05:12;;;;;;;8.70;2.30;;;15.60;99.90;;;;;;4999448;28;20041;-65
2022/10/08 11:07:55;;;;;;;7.28;1.95;;;15.60;99.90;;;;;;5018892;28;20057;-66
2022/10/08 11:10:32;;;;;;;11.30;1.60;;;15.70;99.90;;;;;;5044132;28;20048;-66
2022/10/08 11:13:09;;;;;;;7.05;1.90;;;15.60;99.90;;;;;;5077798;28;20413;-66
2022/10/08 11:16:07;;;;;;;7.95;2.03;;;15.60;99.90;;;;;;5071927;28;20052;-66
2022/10/08 11:18:53;;;;;;;6.70;2.42;;;15.60;99.90;;;;;;5043476;28;20113;-66
2022/10/08 11:21:43;;;;;;;8.95;1.92;;;15.60;99.90;;;;;;5063239;28;20127;-64
2022/10/08 11:24:33;;;;;;;7.95;2.08;;;15.60;99.90;;;;;;5069726;28;20814;-66
2022/10/08 11:27:27;;;;;;;8.60;2.05;;;15.50;99.90;;;;;;5073110;28;20052;-66
2022/10/08 11:30:27;;;;;;;7.15;1.95;;;15.60;99.90;;;;;;5071367;28;20048;-66
2022/10/08 11:32:55;;;;;;;9.02;1.73;;;15.60;99.90;;;;;;5064050;28;20055;-67
2022/10/08 11:35:42;;;;;;;16.55;3.05;;;15.60;99.90;;;;;;5063072;28;20166;-67
2022/10/08 11:38:12;;;;;;;10.38;2.10;;;15.60;99.90;;;;;;5051134;28;20056;-65
2022/10/08 11:40:46;;;;;;;7.20;1.85;;;15.50;99.90;;;;;;5045598;28;20532;-65
2022/10/08 11:43:41;;;;;;;9.98;1.85;;;15.50;99.90;;;;;;5071835;28;20056;-66
2022/10/08 11:46:31;;;;;;;8.13;2.00;;;15.50;99.90;;;;;;4968519;28;20485;-66
2022/10/08 11:49:16;;;;;;;9.60;2.10;;;15.50;99.90;;;;;;4963504;28;20058;-67
2022/10/08 11:51:52;;;;;;;9.35;1.80;;;15.60;99.90;;;;;;4961241;28;20165;-65
2022/10/08 11:54:30;;;;;;;11.73;1.85;;;15.60;99.90;;;;;;4929993;28;20058;-67
2022/10/08 11:57:18;;;;;;;10.48;1.90;;;15.60;99.90;;;;;;4944915;28;20065;-66
2022/10/08 12:00:28;;;;;;;7.78;2.55;;;15.60;99.90;;;;;;4940985;28;20421;-66
2022/10/08 12:02:56;;;;;;;7.88;1.75;;;15.50;99.90;;;;;;4884389;29;20061;-66
2022/10/08 12:05:22;;;;;;;6.53;1.70;;;15.40;99.90;;;;;;4869377;29;20142;-66
2022/10/08 12:07:56;;;;;;;8.70;2.28;;;15.30;99.90;;;;;;4882448;29;20415;-66
2022/10/08 12:10:32;;;;;;;8.43;2.00;;;15.20;99.90;;;;;;4884129;29;20083;-66
2022/10/08 12:13:21;;;;;;;7.72;2.03;;;15.10;99.90;;;;;;4884125;29;20103;-66
2022/10/08 12:15:52;;;;;;;7.40;1.63;;;15.00;99.90;;;;;;4884455;29;20104;-66
2022/10/08 12:18:22;;;;;;;8.43;2.42;;;15.00;99.90;;;;;;4884451;29;20122;-66
2022/10/08 12:21:16;;;;;;;6.75;2.42;;;15.00;99.90;;;;;;4884110;29;20670;-66
2022/10/08 12:23:43;;;;;;;13.80;2.63;;;15.10;99.90;;;;;;4934877;28;20760;-66
2022/10/08 12:26:16;;;;;;;7.28;2.25;;;15.40;99.90;;;;;;4958396;28;20159;-66
2022/10/08 12:28:49;;;;;;;9.25;2.22;;;15.60;99.90;;;;;;4944273;28;20054;-65
2022/10/08 12:31:28;;;;;;;9.30;1.92;;;15.70;99.90;;;;;;4927352;28;20067;-66
2022/10/08 12:34:01;;;;;;;8.07;1.80;;;15.60;99.90;;;;;;4960346;28;20050;-66
2022/10/08 12:36:58;;;;;;;11.40;1.80;;;15.50;99.90;;;;;;4990889;28;20099;-66
2022/10/08 12:39:52;;;;;;;6.28;1.90;;;15.40;99.90;;;;;;5049041;28;20063;-66
2022/10/08 12:42:29;;;;;;;7.25;2.25;;;15.30;99.90;;;;;;5057271;28;20060;-65
2022/10/08 12:45:43;;;;;;;7.82;1.60;;;15.30;99.90;;;;;;5070119;28;20053;-66
2022/10/08 12:48:19;;;;;;;8.98;2.70;;;15.20;99.90;;;;;;4972455;28;20063;-66
2022/10/08 12:51:14;;;;;;;7.57;2.33;;;15.00;99.90;;;;;;4958916;28;20055;-64
2022/10/08 12:53:44;;;;;;;11.55;2.10;;;15.00;99.90;;;;;;4959510;28;20046;-65
2022/10/08 12:56:16;;;;;;;11.02;2.60;;;15.00;99.90;;;;;;4960158;28;20086;-65
2022/10/08 12:58:45;;;;;;;10.20;2.08;;;15.10;99.90;;;;;;4960075;28;20593;-63
2022/10/08 13:01:14;;;;;;;9.30;1.60;;;15.00;99.90;;;;;;4959492;28;20127;-64
2022/10/08 13:03:40;;;;;;;9.43;2.15;;;15.00;99.90;;;;;;4959401;28;20058;-63
2022/10/08 13:06:35;;;;;;;10.25;2.05;;;14.90;99.90;;;;;;4943060;28;20086;-62
2022/10/08 13:09:12;;;;;;;11.98;2.28;;;14.90;99.90;;;;;;4866845;29;20598;-64
2022/10/08 13:11:38;;;;;;;12.07;1.80;;;14.80;99.90;;;;;;4868282;29;21159;-63
2022/10/08 13:14:20;;;;;;;10.27;2.35;;;14.80;99.90;;;;;;4865629;29;20154;-64
2022/10/08 13:16:46;;;;;;;7.60;1.88;;;15.00;99.90;;;;;;4866338;29;20067;-64